Latest Weather Observations for Brisbane Airport

IDQ60801

Issued at 10:02 pm EST Saturday 24 June 2017 (issued every 30 minutes, with the page automatically refreshed every 10 minutes)

About weather observations | Map of weather stations | Latest weather observations for QLD | Other Formats
Station Details ID: 040842 Name: BRISBANE AERO Lat: -27.39 Lon: 153.13 Height: 4.51 m
Data from the previous 72 hours. | See also: Recent months at Brisbane Airport
Date/Time
EST
Temp
°C
App
Temp
°C
Dew
Point
°C
Rel
Hum
%
Delta-T
°C
Wind Press
QNH
hPa
Press
MSL
hPa
Rain since
9am
mm
Dir  Spd
km/h
Gust
km/h
Spd
kts
Gust
kts
24/09:30pm 13.6 12.4 10.3 80 1.7 SSW 7 9 4 5 1018.7 1018.6 0.0
24/09:00pm 14.1 14.4 10.9 81 1.7 CALM 0 0 0 0 1018.4 1018.3 0.0
24/08:30pm 14.5 14.5 11.1 80 1.8 W 2 7 1 4 1018.4 1018.3 0.0
24/08:00pm 14.8 14.2 11.6 81 1.7 W 6 9 3 5 1018.4 1018.3 0.0
24/07:30pm 16.3 16.3 12.5 78 2.1 E 4 6 2 3 1018.1 1018.0 0.0
24/07:00pm 17.3 16.9 12.4 73 2.7 E 6 7 3 4 1017.6 1017.6 0.0
24/06:30pm 17.4 16.1 11.3 67 3.3 E 9 9 5 5 1017.3 1017.3 0.0
24/06:00pm 17.8 16.6 11.6 67 3.4 ENE 9 11 5 6 1016.9 1016.9 0.0
24/05:30pm 17.7 17.2 9.3 58 4.4 NE 2 9 1 5 1016.4 1016.4 0.0
24/05:00pm 18.6 17.6 11.0 61 4.1 NNE 7 9 4 5 1016.1 1016.1 0.0
24/04:30pm 19.8 19.0 11.2 57 4.7 NE 6 9 3 5 1015.9 1015.9 0.0
24/04:00pm 21.5 19.7 9.3 45 6.5 NE 9 13 5 7 1015.8 1015.8 0.0
24/03:30pm 21.9 19.8 9.6 45 6.6 NE 11 15 6 8 1015.8 1015.8 0.0
24/03:00pm 23.4 20.4 5.8 32 8.9 NE 11 15 6 8 1015.6 1015.6 0.0
24/02:30pm 23.1 19.4 4.4 29 9.2 SSW 13 19 7 10 1015.5 1015.5 0.0
24/02:00pm 23.0 18.8 3.6 28 9.4 SSW 15 20 8 11 1015.7 1015.7 0.0
24/01:30pm 22.9 19.9 4.1 29 9.2 SSW 9 13 5 7 1015.6 1015.6 0.0
24/01:00pm 22.7 20.4 5.6 33 8.6 N 7 13 4 7 1015.8 1015.8 0.0
24/12:30pm 23.0 20.3 7.2 36 8.2 SW 11 19 6 10 1016.1 1016.1 0.0
24/12:00pm 22.0 18.7 6.2 36 8.0 WSW 13 19 7 10 1016.5 1016.5 0.0
24/11:30am 21.6 18.5 7.2 39 7.4 WSW 13 19 7 10 1017.2 1017.2 0.0
24/11:00am 20.7 18.3 8.5 45 6.4 SW 11 19 6 10 1017.7 1017.7 0.0
24/10:30am 19.3 17.2 9.7 53 5.1 SW 11 17 6 9 1018.4 1018.3 0.0
24/10:00am 17.7 16.2 10.6 63 3.8 SW 9 13 5 7 1018.7 1018.6 0.0
24/09:30am 15.5 14.1 11.0 74 2.4 SSW 9 13 5 7 1018.8 1018.7 0.0
24/09:00am 13.9 12.6 11.1 83 1.5 SSW 9 11 5 6 1018.6 1018.5 0.0
24/08:30am 12.8 11.4 10.9 88 1.0 SSW 9 11 5 6 1018.5 1018.4 0.0
24/08:00am 11.6 9.6 10.0 90 0.8 SSW 11 13 6 7 1018.3 1018.2 0.0
24/07:30am 10.4 8.6 9.4 93 0.5 SSW 9 11 5 6 1017.8 1017.8 0.0
24/07:00am 10.5 8.6 9.1 91 0.7 SSW 9 11 5 6 1017.8 1017.8 0.0
24/06:30am 9.9 8.0 8.9 93 0.5 SSW 9 11 5 6 1017.5 1017.5 0.0
24/06:18am 10.5 8.7 9.3 92 0.6 SSW 9 11 5 6 1017.3 1017.3 0.0
24/06:00am 9.5 9.2 8.7 95 0.4 CALM 0 0 0 0 1017.1 1017.1 0.0
24/05:30am 9.7 9.5 9.1 96 0.3 CALM 0 0 0 0 1016.8 1016.8 0.0
24/05:00am 9.6 9.4 9.0 96 0.3 CALM 0 0 0 0 1016.5 1016.5 0.0
24/04:30am 10.1 9.9 9.1 93 0.5 CALM 0 0 0 0 1016.4 1016.4 0.0
24/04:00am 10.0 8.1 9.2 95 0.4 WSW 9 11 5 6 1016.5 1016.5 0.0
24/03:30am 10.7 9.3 9.5 92 0.6 W 7 7 4 4 1016.6 1016.6 0.0
24/03:00am 10.5 9.1 8.9 90 0.8 SW 6 7 3 4 1016.8 1016.8 0.0
24/02:30am 10.2 8.8 8.8 91 0.7 NW 6 7 3 4 1016.9 1016.9 0.0
24/02:00am 11.7 11.5 9.1 84 1.3 CALM 0 0 0 0 1017.3 1017.3 0.0
24/01:30am 12.7 12.6 9.3 80 1.7 CALM 0 6 0 3 1017.5 1017.5 0.0
24/01:00am 12.2 11.5 10.0 86 1.1 W 4 11 2 6 1017.7 1017.7 0.0
24/12:30am 12.7 11.7 10.4 86 1.2 NNW 6 7 3 4 1017.6 1017.6 0.0
24/12:00am 12.5 10.8 10.0 85 1.3 N 9 13 5 7 1017.8 1017.8 0.0
 
Date/Time
EST
Temp
°C
App
Temp
°C
Dew
Point
°C
Rel
Hum
%
Delta-T
°C
Wind Press
QNH
hPa
Press
MSL
hPa
Rain since
9am
mm
Dir  Spd
km/h
Gust
km/h
Spd
kts
Gust
kts
23/11:30pm 13.6 12.7 10.5 81 1.6 NNW 6 7 3 4 1018.6 1018.5 0.0
23/11:00pm 13.9 13.0 11.3 84 1.4 NNW 7 9 4 5 1018.9 1018.8 0.0
23/10:30pm 14.0 14.2 11.8 86 1.2 NNW 2 9 1 5 1019.0 1018.9 0.0
23/10:00pm 14.1 14.8 12.1 88 1.1 CALM 0 0 0 0 1019.2 1019.1 0.0
23/09:30pm 14.7 14.3 12.5 87 1.2 NW 6 19 3 10 1019.3 1019.2 0.0
23/09:00pm 14.9 15.0 12.7 87 1.2 WNW 4 9 2 5 1019.5 1019.4 0.0
23/08:30pm 14.6 13.7 12.6 88 1.1 NNW 9 20 5 11 1019.5 1019.4 0.0
23/08:00pm 15.3 14.6 13.3 88 1.1 WNW 9 11 5 6 1019.4 1019.3 0.0
23/07:30pm 15.4 14.7 13.2 87 1.2 NNW 9 15 5 8 1019.3 1019.2 0.0
23/07:00pm 16.5 17.6 13.5 82 1.7 CALM 0 6 0 3 1018.9 1018.8 0.0
23/06:30pm 15.8 15.3 12.7 82 1.7 NNE 7 9 4 5 1018.7 1018.6 0.0
23/06:00pm 15.8 15.4 12.9 83 1.6 NE 7 9 4 5 1018.7 1018.6 0.0
23/05:30pm 16.8 16.3 12.6 76 2.3 NNE 7 9 4 5 1018.6 1018.5 0.0
23/05:00pm 16.6 15.2 12.2 75 2.4 NNE 11 13 6 7 1018.4 1018.3 0.0
23/04:30pm 18.5 17.2 12.6 68 3.3 NNE 11 13 6 7 1018.3 1018.2 0.0
23/04:00pm 19.8 18.0 12.1 61 4.3 NNE 13 15 7 8 1018.3 1018.2 0.0
23/03:30pm 20.8 18.5 11.8 56 5.0 NNE 15 15 8 8 1018.4 1018.3 0.0
23/03:00pm 21.6 19.5 11.3 52 5.7 NNE 13 17 7 9 1018.4 1018.3 0.0
23/02:30pm 22.0 20.5 10.7 48 6.2 ENE 9 13 5 7 1018.7 1018.6 0.0
23/02:00pm 21.9 19.9 10.1 47 6.4 NE 11 13 6 7 1018.9 1018.8 0.0
23/01:30pm 21.8 19.7 11.1 50 5.9 NNE 13 17 7 9 1019.3 1019.2 0.0
23/01:00pm 22.0 20.9 9.8 45 6.6 NW 6 11 3 6 1019.8 1019.7 0.0
23/12:30pm 21.6 20.8 9.7 46 6.4 SSW 4 11 2 6 1020.4 1020.3 0.0
23/12:00pm 20.9 18.9 8.5 45 6.5 SW 9 17 5 9 1020.7 1020.6 0.0
23/11:30am 20.7 18.1 9.2 47 6.1 SW 13 19 7 10 1021.6 1021.5 0.0
23/11:00am 20.1 17.7 10.0 52 5.4 SW 13 17 7 9 1022.4 1022.3 0.0
23/10:30am 19.1 15.9 10.1 56 4.8 SW 17 22 9 12 1022.9 1022.8 0.0
23/10:00am 18.2 14.4 9.9 58 4.4 SW 20 24 11 13 1023.1 1023.0 0.0
23/09:30am 16.8 13.8 10.6 67 3.3 SW 17 24 9 13 1023.4 1023.3 0.0
23/09:00am 15.2 12.8 11.5 78 2.0 SW 15 19 8 10 1023.2 1023.1 0.2
23/08:30am 13.5 11.3 10.8 84 1.4 SSW 13 17 7 9 1023.0 1022.9 0.2
23/08:00am 12.5 10.1 10.2 86 1.2 SSW 13 19 7 10 1023.0 1022.9 0.2
23/07:30am 11.2 8.8 10.0 92 0.6 SSW 13 17 7 9 1022.7 1022.6 0.2
23/07:00am 10.5 7.5 9.3 92 0.6 SSW 15 17 8 9 1022.5 1022.4 0.2
23/06:30am 9.6 6.8 8.6 93 0.5 SSW 13 15 7 8 1022.4 1022.3 0.2
23/06:00am 9.6 6.8 8.6 93 0.5 SSW 13 13 7 7 1022.0 1021.9 0.2
23/05:30am 9.9 7.1 8.7 92 0.6 SW 13 15 7 8 1021.9 1021.8 0.2
23/05:00am 11.2 9.0 9.4 89 0.9 SSW 11 15 6 8 1021.6 1021.5 0.2
23/04:30am 10.8 7.8 9.2 90 0.8 SSW 15 17 8 9 1021.7 1021.6 0.2
23/04:00am 12.0 9.4 9.4 84 1.3 SSW 13 17 7 9 1021.8 1021.7 0.2
23/03:30am 11.6 9.0 9.4 86 1.1 SSW 13 17 7 9 1022.0 1021.9 0.2
23/03:00am 12.1 9.5 9.5 84 1.3 SSW 13 17 7 9 1022.1 1022.0 0.2
23/02:30am 11.9 9.3 9.5 85 1.2 SSW 13 15 7 8 1022.3 1022.2 0.2
23/02:00am 10.9 8.7 9.3 90 0.8 SSW 11 15 6 8 1022.4 1022.3 0.2
23/01:30am 11.5 9.4 9.9 90 0.8 SSW 11 13 6 7 1022.8 1022.7 0.2
23/01:00am 11.6 9.9 9.8 89 0.9 SSW 9 11 5 6 1023.0 1022.9 0.2
23/12:30am 11.4 9.7 9.8 90 0.8 SW 9 11 5 6 1023.1 1023.0 0.2
23/12:00am 12.0 10.2 9.6 85 1.2 SSW 9 11 5 6 1023.4 1023.3 0.2
 
Date/Time
EST
Temp
°C
App
Temp
°C
Dew
Point
°C
Rel
Hum
%
Delta-T
°C
Wind Press
QNH
hPa
Press
MSL
hPa
Rain since
9am
mm
Dir  Spd
km/h
Gust
km/h
Spd
kts
Gust
kts
22/11:30pm 11.1 9.9 9.5 90 0.8 S 6 7 3 4 1023.7 1023.6 0.2
22/11:00pm 12.4 10.3 9.6 83 1.4 SSW 11 11 6 6 1023.8 1023.7 0.2
22/10:30pm 12.5 10.4 9.9 84 1.3 SSW 11 13 6 7 1023.9 1023.8 0.2
22/10:00pm 13.2 11.9 9.9 80 1.7 SSW 7 9 4 5 1024.0 1023.9 0.2
22/09:30pm 13.8 12.1 9.9 77 2.0 SSW 9 13 5 7 1023.9 1023.8 0.2
22/09:00pm 13.3 11.6 9.8 79 1.8 SSW 9 9 5 5 1024.0 1023.9 0.2
22/08:30pm 14.3 12.6 9.8 74 2.3 SSW 9 9 5 5 1023.9 1023.8 0.2
22/08:00pm 14.8 13.5 10.0 73 2.5 S 7 7 4 4 1024.1 1024.0 0.2
22/07:30pm 15.7 14.4 10.1 69 2.9 SSE 7 7 4 4 1024.0 1023.9 0.2
22/07:00pm 16.5 15.3 9.6 63 3.6 SE 6 9 3 5 1023.8 1023.7 0.2
22/06:30pm 17.4 16.0 9.5 59 4.1 SE 7 9 4 5 1023.7 1023.6 0.2
22/06:00pm 17.8 16.4 9.4 58 4.4 SE 7 9 4 5 1023.4 1023.3 0.2
22/05:30pm 18.5 16.6 8.9 53 5.0 SE 9 13 5 7 1023.1 1023.0 0.2
22/05:00pm 19.0 16.8 7.8 48 5.7 SE 9 15 5 8 1023.0 1022.9 0.2
22/04:30pm 19.6 17.0 7.9 46 6.0 ESE 11 20 6 11 1022.8 1022.7 0.2
22/04:00pm 19.9 17.2 8.8 48 5.8 ESE 13 22 7 12 1022.8 1022.7 0.2
22/03:30pm 19.8 17.1 10.3 54 5.1 ESE 15 26 8 14 1022.6 1022.5 0.2
22/03:00pm 20.1 17.2 11.1 56 4.9 ESE 17 28 9 15 1022.5 1022.4 0.2
22/02:30pm 20.2 17.0 9.9 51 5.5 ESE 17 26 9 14 1022.6 1022.5 0.2
22/02:00pm 20.0 17.0 10.6 54 5.1 ESE 17 28 9 15 1022.7 1022.6 0.2
22/01:30pm 20.8 18.3 12.4 58 4.7 ESE 17 28 9 15 1022.8 1022.7 0.2
22/01:00pm 20.6 18.6 12.6 60 4.5 ESE 15 22 8 12 1023.2 1023.1 0.2
22/12:30pm 21.6 19.5 11.3 52 5.7 S 13 22 7 12 1023.5 1023.4 0.0
22/12:00pm 21.4 18.9 11.0 51 5.7 S 15 22 8 12 1024.1 1024.0 0.0
22/11:30am 21.1 19.0 11.1 52 5.5 S 13 26 7 14 1024.5 1024.4 0.0
22/11:00am 20.5 17.6 11.0 54 5.2 S 17 22 9 12 1025.0 1024.9 0.0
22/10:30am 19.2 16.5 10.4 56 4.7 SSW 15 19 8 10 1025.4 1025.3 0.0
22/10:00am 19.3 16.0 9.6 53 5.1 S 17 24 9 13 1025.6 1025.5 0.0
22/09:30am 18.7 15.0 9.6 55 4.8 SSW 19 26 10 14 1025.8 1025.7 0.0
22/09:00am 17.5 13.9 9.7 60 4.1 SSW 19 30 10 16 1025.8 1025.7 0.2
22/08:30am 16.5 12.6 9.6 63 3.6 SSW 20 30 11 16 1025.5 1025.4 0.2
22/08:00am 15.6 11.5 10.0 69 2.9 SSW 22 30 12 16 1025.2 1025.1 0.2
22/07:30am 14.7 11.9 9.9 73 2.5 SSW 15 20 8 11 1025.1 1025.0 0.2
22/07:00am 13.4 10.2 9.9 79 1.8 SSW 17 20 9 11 1024.7 1024.6 0.0
22/06:30am 13.9 10.7 9.8 76 2.1 SSW 17 20 9 11 1024.4 1024.3 0.0
22/06:00am 14.1 11.6 9.8 75 2.2 SSW 13 19 7 10 1024.1 1024.0 0.0
22/05:30am 13.7 10.9 10.0 78 1.9 SSW 15 17 8 9 1023.7 1023.6 0.0
22/05:00am 12.8 10.1 10.3 85 1.3 SSW 15 19 8 10 1023.5 1023.4 0.0
22/04:30am 13.3 11.0 10.4 82 1.5 SSW 13 17 7 9 1023.2 1023.1 0.0
22/04:00am 14.5 11.8 10.3 76 2.2 SSW 15 19 8 10 1023.2 1023.1 0.0
22/03:30am 14.8 12.1 10.2 74 2.4 SSW 15 19 8 10 1023.2 1023.1 0.0
22/03:00am 14.6 12.0 10.6 77 2.1 SSW 15 19 8 10 1023.3 1023.2 0.0
22/02:30am 15.1 12.8 10.5 74 2.4 SSW 13 17 7 9 1023.1 1023.0 0.0
22/02:00am 14.1 11.9 10.7 80 1.8 SSW 13 15 7 8 1023.3 1023.2 0.0
22/01:30am 13.9 11.6 10.4 79 1.8 SSW 13 15 7 8 1023.5 1023.4 0.0
22/01:00am 15.0 12.7 10.4 74 2.4 SSW 13 17 7 9 1023.5 1023.4 0.0
22/12:30am 16.8 14.4 10.1 64 3.5 SSW 13 15 7 8 1023.7 1023.6 0.0
22/12:00am 17.7 15.4 10.4 62 3.9 SSW 13 17 7 9 1023.9 1023.8 0.0
 
Date/Time
EST
Temp
°C
App
Temp
°C
Dew
Point
°C
Rel
Hum
%
Delta-T
°C
Wind Press
QNH
hPa
Press
MSL
hPa
Rain since
9am
mm
Dir  Spd
km/h
Gust
km/h
Spd
kts
Gust
kts
21/11:30pm 17.8 15.5 10.5 62 3.9 SSW 13 17 7 9 1023.9 1023.8 0.0
21/11:00pm 16.6 14.6 11.4 71 2.8 SSW 13 15 7 8 1024.0 1023.9 0.0
21/10:30pm 16.4 13.9 11.2 71 2.8 SSW 15 19 8 10 1024.2 1024.1 0.0

Other Formats:

Comma delimited format used in spreadsheet applications
http://www.bom.gov.au/fwo/IDQ60801/IDQ60801.94578.axf

JavaScript Object Notation format (JSON) in row-major order
http://www.bom.gov.au/fwo/IDQ60801/IDQ60801.94578.json